Time;durP1;ratioP1;P1;durP2;ratioP2;P2;SDS_P1;SDS_P2;PMS_P1;PMS_P2;Temp;Humidity;BMP_temperature;BMP_pressure;BME280_temperature;BME280_humidity;BME280_pressure;Samples;Min_cycle;Max_cycle;Signal;HPM_P1;HPM_P2
2021/12/15 00:01:43;;;;;;;65.23;30.57;;;7.80;99.90;;;;;;5026172;28;20209;-71
2021/12/15 00:04:11;;;;;;;66.97;31.40;;;7.80;99.90;;;;;;5025787;28;20635;-71
2021/12/15 00:06:39;;;;;;;70.93;32.07;;;7.80;99.90;;;;;;5025850;28;20236;-71
2021/12/15 00:09:08;;;;;;;71.27;32.10;;;7.80;99.90;;;;;;5025824;28;20319;-71
2021/12/15 00:11:37;;;;;;;69.53;34.77;;;7.80;99.90;;;;;;5025855;28;20244;-71
2021/12/15 00:14:07;;;;;;;71.43;34.90;;;7.70;99.90;;;;;;5025963;28;20208;-71
2021/12/15 00:16:34;;;;;;;61.93;30.03;;;7.70;99.90;;;;;;5026068;28;20248;-71
2021/12/15 00:19:04;;;;;;;64.33;29.97;;;7.70;99.90;;;;;;5026547;28;20205;-71
2021/12/15 00:21:31;;;;;;;64.87;32.77;;;7.80;99.90;;;;;;5025732;28;20753;-71
2021/12/15 00:23:58;;;;;;;64.03;30.03;;;7.70;99.90;;;;;;5025944;28;20271;-71
2021/12/15 00:26:25;;;;;;;60.70;29.47;;;7.70;99.90;;;;;;5026127;28;20316;-71
2021/12/15 00:28:53;;;;;;;61.77;29.73;;;7.70;99.90;;;;;;5026069;28;20246;-71
2021/12/15 00:31:20;;;;;;;60.73;28.63;;;7.80;99.90;;;;;;5025300;28;20614;-71
2021/12/15 00:33:48;;;;;;;57.37;28.70;;;7.80;99.90;;;;;;5026091;28;20239;-71
2021/12/15 00:36:17;;;;;;;60.20;29.30;;;7.80;99.90;;;;;;5025328;28;20327;-71
2021/12/15 00:38:44;;;;;;;67.50;30.70;;;7.70;99.90;;;;;;5025875;28;20241;-72
2021/12/15 00:41:11;;;;;;;65.00;30.70;;;7.70;99.90;;;;;;5025860;28;20645;-77
2021/12/15 00:43:39;;;;;;;59.90;28.27;;;7.80;99.90;;;;;;5025638;28;20548;-76
2021/12/15 00:46:07;;;;;;;69.40;31.50;;;7.90;99.90;;;;;;5025368;28;20244;-76
2021/12/15 00:48:34;;;;;;;71.37;35.97;;;7.90;99.90;;;;;;5025709;28;20487;-71
2021/12/15 00:51:06;;;;;;;63.53;30.30;;;7.90;99.90;;;;;;5025693;28;20254;-73
2021/12/15 00:53:35;;;;;;;61.40;30.93;;;7.90;99.90;;;;;;5008819;28;20206;-72
2021/12/15 00:56:02;;;;;;;56.80;28.97;;;7.90;99.90;;;;;;5008583;28;20213;-71
2021/12/15 00:58:28;;;;;;;61.90;29.53;;;7.80;99.90;;;;;;5008495;28;20241;-74
2021/12/15 01:00:58;;;;;;;59.70;29.03;;;7.80;99.90;;;;;;5008661;28;20309;-71
2021/12/15 01:03:26;;;;;;;60.67;29.23;;;7.80;99.90;;;;;;5013757;28;20240;-70
2021/12/15 01:06:02;;;;;;;61.40;28.77;;;7.80;99.90;;;;;;5008649;28;20275;-72
2021/12/15 01:08:32;;;;;;;63.97;30.17;;;7.80;99.90;;;;;;5007930;28;20197;-72
2021/12/15 01:11:11;;;;;;;68.07;30.37;;;7.90;99.90;;;;;;5008590;28;20367;-72
2021/12/15 01:21:59;;;;;;;58.87;28.40;;;7.80;99.90;;;;;;5008491;28;20192;-72
2021/12/15 01:24:26;;;;;;;63.43;28.90;;;7.80;99.90;;;;;;5008175;28;20210;-71
2021/12/15 01:26:55;;;;;;;58.13;27.90;;;7.80;99.90;;;;;;5007986;28;20312;-71
2021/12/15 01:29:22;;;;;;;58.90;29.20;;;7.80;99.90;;;;;;5008095;28;20270;-72
2021/12/15 01:31:49;;;;;;;55.83;27.63;;;7.80;99.90;;;;;;5008289;28;20225;-72
2021/12/15 01:34:16;;;;;;;57.03;28.83;;;7.80;99.90;;;;;;5007792;28;20252;-72
2021/12/15 01:36:43;;;;;;;61.33;28.43;;;7.80;99.90;;;;;;5007462;28;20759;-72
2021/12/15 01:39:10;;;;;;;58.43;27.77;;;7.80;99.90;;;;;;5008063;28;20727;-72
2021/12/15 01:41:38;;;;;;;65.13;33.37;;;7.80;99.90;;;;;;5007391;28;20237;-72
2021/12/15 01:46:59;;;;;;;55.83;27.37;;;7.90;99.90;;;;;;5007967;28;20614;-72
2021/12/15 01:49:36;;;;;;;55.87;26.10;;;7.80;99.90;;;;;;5008180;28;20222;-72
2021/12/15 01:52:06;;;;;;;53.20;26.07;;;7.90;99.90;;;;;;5008419;28;20197;-72
2021/12/15 01:54:34;;;;;;;54.83;26.60;;;7.90;99.90;;;;;;5007947;28;20324;-71
2021/12/15 01:57:02;;;;;;;50.47;26.20;;;7.90;99.90;;;;;;5008149;28;20213;-71
2021/12/15 01:59:31;;;;;;;50.77;25.10;;;7.90;99.90;;;;;;5008236;28;20284;-72
2021/12/15 02:01:58;;;;;;;58.63;27.07;;;7.90;99.90;;;;;;5008087;28;20259;-72
2021/12/15 02:04:25;;;;;;;48.03;25.87;;;7.80;99.90;;;;;;5010112;28;20252;-71
2021/12/15 02:06:52;;;;;;;55.37;25.73;;;7.80;99.90;;;;;;5011985;28;20276;-71
2021/12/15 02:09:36;;;;;;;49.60;25.20;;;7.80;99.90;;;;;;5011866;28;20221;-71
2021/12/15 02:12:03;;;;;;;51.43;25.03;;;7.80;99.90;;;;;;5011684;28;20762;-71
2021/12/15 02:14:33;;;;;;;57.90;26.67;;;7.80;99.90;;;;;;5020233;28;20208;-71
2021/12/15 02:17:01;;;;;;;53.63;25.83;;;7.80;99.90;;;;;;5031607;28;20259;-71
2021/12/15 02:19:28;;;;;;;51.20;25.57;;;7.80;99.90;;;;;;5031477;28;20237;-71
2021/12/15 02:21:58;;;;;;;56.47;25.27;;;7.80;99.90;;;;;;5031517;28;20287;-72
2021/12/15 02:24:26;;;;;;;54.97;26.33;;;7.80;99.90;;;;;;5031511;28;20193;-71
2021/12/15 02:26:58;;;;;;;56.03;25.10;;;7.80;99.90;;;;;;5031448;28;20239;-71
2021/12/15 02:29:29;;;;;;;52.67;25.30;;;7.80;99.90;;;;;;5031155;28;20669;-72
2021/12/15 02:32:04;;;;;;;50.60;25.20;;;7.80;99.90;;;;;;5031356;28;20263;-72
2021/12/15 02:34:56;;;;;;;48.83;24.33;;;7.80;99.90;;;;;;5031025;28;20609;-72
2021/12/15 02:37:25;;;;;;;47.77;24.17;;;7.80;99.90;;;;;;5030765;28;20640;-71
2021/12/15 02:39:54;;;;;;;49.53;24.33;;;7.80;99.90;;;;;;5031297;28;20213;-72
2021/12/15 02:42:23;;;;;;;48.73;23.73;;;7.80;99.90;;;;;;5030716;28;20212;-72
2021/12/15 02:44:50;;;;;;;50.73;24.57;;;7.80;99.90;;;;;;5030956;28;20245;-71
2021/12/15 02:47:21;;;;;;;52.80;23.80;;;7.80;99.90;;;;;;5030320;28;20319;-72
2021/12/15 02:49:49;;;;;;;49.13;24.43;;;7.80;99.90;;;;;;5029305;28;20237;-71
2021/12/15 02:52:16;;;;;;;49.63;24.43;;;7.80;99.90;;;;;;5029097;28;20290;-72
2021/12/15 02:54:45;;;;;;;48.93;24.03;;;7.80;99.90;;;;;;5030590;28;20272;-73
2021/12/15 02:57:13;;;;;;;48.67;24.53;;;7.80;99.90;;;;;;5030985;28;20721;-73
2021/12/15 02:59:51;;;;;;;45.60;24.13;;;7.80;99.90;;;;;;5030656;28;20676;-73
2021/12/15 03:02:41;;;;;;;46.47;23.80;;;7.80;99.90;;;;;;5030864;28;20204;-73
2021/12/15 03:05:14;;;;;;;50.50;24.20;;;7.80;99.90;;;;;;5030597;28;20440;-73
2021/12/15 03:07:48;;;;;;;49.70;23.83;;;7.80;99.90;;;;;;5030590;28;20767;-71
2021/12/15 03:15:40;;;;;;;46.63;22.27;;;7.80;99.90;;;;;;5030009;28;20196;-70
2021/12/15 03:18:15;;;;;;;47.50;23.30;;;7.80;99.90;;;;;;5030171;28;20223;-70
2021/12/15 03:20:48;;;;;;;44.60;23.87;;;7.80;99.90;;;;;;5030200;28;20717;-70
2021/12/15 03:23:19;;;;;;;44.97;23.30;;;7.90;99.90;;;;;;5030443;28;20239;-70
2021/12/15 03:25:47;;;;;;;44.10;23.00;;;7.80;99.90;;;;;;5030454;28;20679;-71
2021/12/15 03:33:57;;;;;;;41.37;21.30;;;7.80;99.90;;;;;;5029967;28;20733;-72
2021/12/15 03:36:38;;;;;;;42.70;21.50;;;7.80;99.90;;;;;;5029972;28;20243;-72
2021/12/15 03:39:07;;;;;;;42.90;22.10;;;7.80;99.90;;;;;;5030254;28;20634;-71
2021/12/15 03:41:36;;;;;;;44.33;21.87;;;7.80;99.90;;;;;;5030377;28;20292;-72
2021/12/15 03:44:05;;;;;;;44.07;22.47;;;7.80;99.90;;;;;;5030253;28;20208;-72
2021/12/15 03:46:33;;;;;;;38.87;22.07;;;7.80;99.90;;;;;;5029349;28;20264;-72
2021/12/15 03:49:00;;;;;;;44.30;22.33;;;7.80;99.90;;;;;;5029934;28;20287;-72
2021/12/15 03:51:27;;;;;;;44.80;22.73;;;7.80;99.90;;;;;;5029961;28;20575;-72
2021/12/15 03:53:54;;;;;;;42.50;22.50;;;7.80;99.90;;;;;;5029913;28;20636;-72
2021/12/15 03:56:21;;;;;;;45.23;23.03;;;7.80;99.90;;;;;;5030173;28;20248;-70
2021/12/15 03:58:49;;;;;;;41.13;22.17;;;7.80;99.90;;;;;;5029761;28;20287;-71
2021/12/15 04:01:21;;;;;;;40.00;20.87;;;7.80;99.90;;;;;;5029683;28;20278;-71
2021/12/15 04:03:50;;;;;;;42.40;21.00;;;7.80;99.90;;;;;;5029721;28;20207;-71
2021/12/15 04:06:21;;;;;;;39.67;21.47;;;7.80;99.90;;;;;;5029701;28;20208;-71
2021/12/15 04:08:48;;;;;;;41.37;21.33;;;7.80;99.90;;;;;;5029741;28;20301;-72
2021/12/15 04:11:18;;;;;;;40.43;20.67;;;7.80;99.90;;;;;;5029651;28;20228;-72
2021/12/15 04:13:46;;;;;;;41.10;21.93;;;7.80;99.90;;;;;;5029395;28;20248;-72
2021/12/15 04:16:39;;;;;;;37.57;20.40;;;7.80;99.90;;;;;;5029027;28;20205;-72
2021/12/15 04:19:06;;;;;;;40.43;19.73;;;7.80;99.90;;;;;;5029173;28;20738;-72
2021/12/15 04:21:34;;;;;;;35.63;19.03;;;7.80;99.90;;;;;;5029730;28;20204;-72
2021/12/15 04:24:01;;;;;;;37.67;20.73;;;7.80;99.90;;;;;;5029200;28;20208;-72
2021/12/15 04:26:29;;;;;;;36.10;20.33;;;7.80;99.90;;;;;;5028431;28;20217;-71
2021/12/15 04:28:56;;;;;;;37.33;21.57;;;7.80;99.90;;;;;;5029110;28;20319;-71
2021/12/15 04:31:31;;;;;;;39.20;21.77;;;7.90;99.90;;;;;;5028944;28;20651;-72
2021/12/15 04:34:00;;;;;;;37.30;20.80;;;7.80;99.90;;;;;;5029318;28;20189;-72
2021/12/15 04:36:32;;;;;;;36.00;19.13;;;7.80;99.90;;;;;;5029143;28;20236;-72
2021/12/15 04:39:00;;;;;;;32.53;19.53;;;7.90;99.90;;;;;;5029361;28;20189;-72
2021/12/15 04:41:27;;;;;;;39.27;20.83;;;7.80;99.90;;;;;;5028988;28;20303;-72
2021/12/15 04:43:57;;;;;;;38.33;20.67;;;7.90;99.90;;;;;;5028562;28;20560;-72
2021/12/15 04:46:28;;;;;;;37.13;19.80;;;7.90;99.90;;;;;;5028331;28;20312;-72
2021/12/15 04:48:55;;;;;;;34.47;19.57;;;7.90;99.90;;;;;;5028824;28;20633;-70
2021/12/15 04:51:22;;;;;;;34.23;19.50;;;7.90;99.90;;;;;;5028301;28;20201;-71
2021/12/15 04:53:52;;;;;;;34.57;19.77;;;7.90;99.90;;;;;;5028593;28;20247;-71
2021/12/15 04:56:19;;;;;;;37.17;19.30;;;7.90;99.90;;;;;;5028420;28;20217;-72
2021/12/15 04:58:47;;;;;;;32.57;19.03;;;7.90;99.90;;;;;;5028563;28;20240;-71
2021/12/15 05:01:15;;;;;;;37.00;20.23;;;7.90;99.90;;;;;;5028504;28;20275;-71
2021/12/15 05:03:43;;;;;;;33.30;18.97;;;7.90;99.90;;;;;;5028377;28;20244;-71
2021/12/15 05:06:10;;;;;;;36.70;19.77;;;7.90;99.90;;;;;;5028545;28;20630;-71
2021/12/15 05:08:39;;;;;;;33.73;19.30;;;7.90;99.90;;;;;;5028267;28;20264;-71
2021/12/15 05:11:09;;;;;;;33.27;19.93;;;7.90;99.90;;;;;;5028498;28;20307;-71
2021/12/15 05:13:36;;;;;;;34.33;19.30;;;7.90;99.90;;;;;;5028175;28;20717;-71
2021/12/15 05:16:06;;;;;;;35.70;19.57;;;7.90;99.90;;;;;;5027982;28;20248;-71
2021/12/15 05:18:34;;;;;;;31.67;18.97;;;7.90;99.90;;;;;;5028493;28;20224;-71
2021/12/15 05:21:06;;;;;;;31.83;19.00;;;7.90;99.90;;;;;;5028380;28;20205;-71
2021/12/15 05:23:33;;;;;;;34.70;19.13;;;7.90;99.90;;;;;;5028304;28;20718;-71
2021/12/15 05:26:04;;;;;;;35.27;18.97;;;7.90;99.90;;;;;;5028111;28;20200;-71
2021/12/15 05:28:31;;;;;;;34.00;19.00;;;7.90;99.90;;;;;;5028065;28;20229;-71
2021/12/15 05:30:59;;;;;;;35.60;19.43;;;7.90;99.90;;;;;;5027945;28;20315;-71
2021/12/15 05:33:26;;;;;;;32.20;19.67;;;7.90;99.90;;;;;;5028069;28;20212;-71
2021/12/15 05:35:55;;;;;;;31.47;18.80;;;7.90;99.90;;;;;;5028343;28;20306;-71
2021/12/15 05:38:24;;;;;;;33.93;19.33;;;7.90;99.90;;;;;;5026802;28;20667;-71
2021/12/15 05:40:51;;;;;;;38.33;20.80;;;7.90;99.90;;;;;;5028081;28;20239;-72
2021/12/15 05:43:18;;;;;;;35.87;19.40;;;7.90;99.90;;;;;;5027947;28;20263;-71
2021/12/15 05:45:48;;;;;;;37.37;20.27;;;7.90;99.90;;;;;;5028104;28;20260;-72
2021/12/15 05:48:15;;;;;;;32.40;18.63;;;7.90;99.90;;;;;;5027620;28;20228;-71
2021/12/15 05:50:44;;;;;;;33.10;18.43;;;7.90;99.90;;;;;;5027805;28;20303;-71
2021/12/15 05:53:11;;;;;;;33.63;18.83;;;7.90;99.90;;;;;;5027878;28;20255;-72
2021/12/15 05:55:41;;;;;;;33.27;19.27;;;7.90;99.90;;;;;;5027737;28;20335;-72
2021/12/15 05:58:08;;;;;;;35.10;18.57;;;7.80;99.90;;;;;;5027847;28;20235;-71
2021/12/15 06:00:38;;;;;;;33.27;18.97;;;7.80;99.90;;;;;;5027801;28;20211;-71
2021/12/15 06:03:06;;;;;;;30.50;18.17;;;7.80;99.90;;;;;;5028105;28;20271;-72
2021/12/15 06:05:34;;;;;;;28.53;17.43;;;7.70;99.90;;;;;;5027575;28;21037;-72
2021/12/15 06:08:01;;;;;;;31.13;18.67;;;7.70;99.90;;;;;;5027737;28;20319;-72
2021/12/15 06:10:30;;;;;;;32.63;18.40;;;7.70;99.90;;;;;;5027543;28;20663;-72
2021/12/15 06:13:02;;;;;;;32.53;18.37;;;7.70;99.90;;;;;;5027623;28;20205;-72
2021/12/15 06:15:30;;;;;;;28.90;18.13;;;7.70;99.90;;;;;;5027517;28;20211;-72
2021/12/15 06:18:01;;;;;;;27.47;17.60;;;7.70;99.90;;;;;;5027368;28;20211;-72
2021/12/15 06:20:29;;;;;;;27.37;17.03;;;7.70;99.90;;;;;;5027738;28;20651;-71
2021/12/15 06:22:59;;;;;;;28.77;17.20;;;7.70;99.90;;;;;;5027893;28;20587;-72
2021/12/15 06:25:26;;;;;;;30.37;17.10;;;7.80;99.90;;;;;;5027414;28;20200;-71
2021/12/15 06:27:53;;;;;;;27.00;16.57;;;7.70;99.90;;;;;;5027564;28;20247;-71
2021/12/15 06:30:21;;;;;;;31.00;17.50;;;7.60;99.90;;;;;;5027089;28;20307;-70
2021/12/15 06:32:48;;;;;;;26.47;16.93;;;7.60;99.90;;;;;;5027315;28;20574;-71
2021/12/15 06:35:15;;;;;;;28.47;17.23;;;7.70;99.90;;;;;;5027666;28;20262;-71
2021/12/15 06:37:42;;;;;;;27.73;16.30;;;7.60;99.90;;;;;;5027468;28;20247;-72
2021/12/15 06:40:11;;;;;;;27.53;16.53;;;7.70;99.90;;;;;;5027366;28;20904;-72
2021/12/15 06:42:39;;;;;;;26.83;16.43;;;7.60;99.90;;;;;;5027809;28;20208;-72
2021/12/15 06:45:10;;;;;;;26.37;16.30;;;7.60;99.90;;;;;;5027822;28;20213;-72
2021/12/15 06:58:36;;;;;;;25.10;15.73;;;7.70;99.90;;;;;;5030745;28;20200;-72
2021/12/15 07:01:07;;;;;;;26.70;15.93;;;7.70;99.90;;;;;;5030912;28;20451;-71
2021/12/15 07:03:35;;;;;;;29.57;17.53;;;7.70;99.90;;;;;;5030986;28;20197;-72
2021/12/15 07:06:06;;;;;;;27.53;16.80;;;7.80;99.90;;;;;;5030757;28;20208;-72
2021/12/15 07:08:36;;;;;;;22.97;15.57;;;7.80;99.90;;;;;;5030595;28;20354;-72
2021/12/15 07:11:05;;;;;;;25.73;16.00;;;7.80;99.90;;;;;;5030424;28;20643;-71
2021/12/15 07:13:33;;;;;;;27.83;17.00;;;7.80;99.90;;;;;;5030816;28;20240;-71
2021/12/15 07:16:03;;;;;;;25.27;16.43;;;7.80;99.90;;;;;;5030418;28;20228;-72
2021/12/15 07:18:41;;;;;;;25.77;15.50;;;7.80;99.90;;;;;;5030485;28;20212;-71
2021/12/15 07:21:17;;;;;;;22.63;14.27;;;7.80;99.90;;;;;;5030238;28;20690;-71
2021/12/15 07:23:45;;;;;;;24.47;15.60;;;7.80;99.90;;;;;;5030264;28;20200;-72
2021/12/15 07:26:12;;;;;;;24.57;15.23;;;7.80;99.90;;;;;;5030086;28;20615;-71
2021/12/15 07:28:40;;;;;;;22.63;14.83;;;7.90;99.90;;;;;;5030012;28;20704;-71
2021/12/15 07:31:08;;;;;;;23.30;15.03;;;7.90;99.90;;;;;;5030255;28;20263;-72
2021/12/15 07:33:35;;;;;;;23.93;15.00;;;7.90;99.90;;;;;;5030423;28;20213;-73
2021/12/15 07:36:06;;;;;;;25.27;15.43;;;7.90;99.90;;;;;;5030230;28;20256;-72
2021/12/15 07:38:41;;;;;;;22.90;14.83;;;7.90;99.90;;;;;;5029884;28;20672;-72
2021/12/15 07:41:16;;;;;;;24.40;15.33;;;7.90;99.90;;;;;;5029771;28;20193;-72
2021/12/15 07:43:44;;;;;;;26.77;15.20;;;7.80;99.90;;;;;;5029946;28;20690;-72
2021/12/15 07:46:12;;;;;;;24.37;15.13;;;7.80;99.90;;;;;;5029804;28;20259;-73
2021/12/15 07:48:40;;;;;;;23.10;14.80;;;7.80;99.90;;;;;;5030086;28;20232;-72
2021/12/15 07:51:09;;;;;;;23.87;15.37;;;7.80;99.90;;;;;;5029762;28;20205;-71
2021/12/15 07:53:42;;;;;;;25.07;15.37;;;7.80;99.90;;;;;;5029847;28;20236;-71
2021/12/15 07:56:10;;;;;;;21.20;14.40;;;7.90;99.90;;;;;;5029512;28;20296;-71
2021/12/15 07:58:37;;;;;;;25.07;14.50;;;7.90;99.90;;;;;;5029787;28;20761;-73
2021/12/15 08:01:08;;;;;;;24.33;14.73;;;7.90;99.90;;;;;;5028927;28;20295;-72
2021/12/15 08:03:41;;;;;;;23.93;15.37;;;7.90;99.90;;;;;;5029905;28;20232;-72
2021/12/15 08:06:08;;;;;;;23.07;14.70;;;7.90;99.90;;;;;;5029614;28;20233;-72
2021/12/15 08:08:35;;;;;;;20.30;13.97;;;7.90;99.90;;;;;;5029496;28;20328;-72
2021/12/15 08:11:06;;;;;;;21.50;14.73;;;7.90;99.90;;;;;;5029480;28;20229;-71
2021/12/15 08:13:35;;;;;;;22.73;14.40;;;7.90;99.90;;;;;;5029618;28;20225;-71
2021/12/15 08:16:05;;;;;;;20.93;14.40;;;7.90;99.90;;;;;;5029252;28;20259;-71
2021/12/15 08:18:32;;;;;;;21.07;14.50;;;8.00;99.90;;;;;;5029411;28;20204;-71
2021/12/15 08:21:00;;;;;;;23.83;15.27;;;8.00;99.90;;;;;;5029423;28;20296;-73
2021/12/15 08:23:27;;;;;;;25.10;15.93;;;8.00;99.90;;;;;;5029041;28;20201;-72
2021/12/15 08:25:54;;;;;;;21.63;13.87;;;8.00;99.90;;;;;;5029222;28;20266;-72
2021/12/15 08:28:23;;;;;;;20.33;14.67;;;8.00;99.90;;;;;;5028994;28;20220;-73
2021/12/15 08:30:51;;;;;;;22.60;14.57;;;8.00;99.90;;;;;;5029323;28;20212;-73
2021/12/15 08:33:22;;;;;;;24.53;14.33;;;8.00;99.90;;;;;;5028979;28;20292;-72
2021/12/15 08:35:51;;;;;;;22.13;14.93;;;8.10;99.90;;;;;;5029214;28;20633;-72
2021/12/15 08:38:19;;;;;;;18.73;13.93;;;8.10;99.90;;;;;;5028580;28;20212;-73
2021/12/15 08:40:46;;;;;;;18.70;13.40;;;8.10;99.90;;;;;;5028696;28;20552;-72
2021/12/15 08:43:15;;;;;;;23.17;15.13;;;8.10;99.90;;;;;;5028691;28;20672;-72
2021/12/15 08:45:48;;;;;;;22.00;14.87;;;8.10;99.90;;;;;;5028843;28;20228;-72
2021/12/15 08:48:15;;;;;;;20.80;14.17;;;8.30;99.90;;;;;;5028903;28;20239;-72
2021/12/15 08:50:43;;;;;;;21.53;14.93;;;8.20;99.90;;;;;;5028677;28;20264;-72
2021/12/15 08:53:11;;;;;;;20.07;14.60;;;8.30;99.90;;;;;;5028899;28;20306;-73
2021/12/15 08:55:40;;;;;;;21.20;13.77;;;8.20;99.90;;;;;;5028440;28;20323;-72
2021/12/15 08:58:10;;;;;;;20.77;13.93;;;8.30;99.90;;;;;;5016642;28;20209;-71
2021/12/15 09:00:38;;;;;;;18.23;13.50;;;8.30;99.90;;;;;;5008681;28;20240;-71
2021/12/15 09:03:07;;;;;;;17.13;12.80;;;8.30;99.90;;;;;;5008419;28;20751;-71
2021/12/15 09:05:35;;;;;;;18.47;13.77;;;8.30;99.90;;;;;;5008279;28;20245;-72
2021/12/15 09:08:02;;;;;;;19.47;13.43;;;8.30;99.90;;;;;;5008496;28;20589;-71
2021/12/15 09:10:32;;;;;;;19.43;13.83;;;8.40;99.90;;;;;;5008344;28;20273;-72
2021/12/15 09:13:00;;;;;;;18.70;14.17;;;8.40;99.90;;;;;;5008547;28;20695;-71
2021/12/15 09:15:28;;;;;;;19.93;13.43;;;8.40;99.90;;;;;;5008136;28;20232;-71
2021/12/15 09:17:56;;;;;;;18.70;14.10;;;8.40;99.90;;;;;;5008483;28;20218;-71
2021/12/15 09:20:28;;;;;;;18.07;13.43;;;8.40;99.90;;;;;;5008386;28;20213;-71
2021/12/15 09:22:56;;;;;;;19.70;13.77;;;8.40;99.90;;;;;;5008249;28;20731;-71
2021/12/15 09:25:25;;;;;;;19.13;14.33;;;8.40;99.90;;;;;;5008319;28;20615;-71
2021/12/15 09:27:52;;;;;;;92.87;27.47;;;8.50;99.90;;;;;;5008114;28;21078;-71
2021/12/15 09:30:22;;;;;;;19.43;14.43;;;8.50;99.90;;;;;;5008137;28;20655;-71
2021/12/15 09:32:49;;;;;;;19.53;14.80;;;8.50;99.90;;;;;;5007963;28;20213;-71
2021/12/15 09:35:19;;;;;;;21.33;14.27;;;8.50;99.90;;;;;;5008462;28;20292;-71
2021/12/15 09:37:49;;;;;;;20.93;14.73;;;8.50;99.90;;;;;;5008246;28;20290;-71
2021/12/15 09:40:17;;;;;;;23.27;14.97;;;8.50;99.90;;;;;;5008168;28;20236;-72
2021/12/15 09:42:45;;;;;;;21.00;14.37;;;8.50;99.90;;;;;;5008153;28;20209;-72
2021/12/15 09:45:28;;;;;;;19.80;14.57;;;8.50;99.90;;;;;;5007799;28;20724;-72
2021/12/15 09:56:48;;;;;;;22.43;15.10;;;8.60;99.90;;;;;;5007554;28;20279;-72
2021/12/15 10:02:24;;;;;;;18.53;14.57;;;8.60;99.90;;;;;;5007851;28;20274;-71
2021/12/15 10:05:02;;;;;;;20.30;14.53;;;8.60;99.90;;;;;;5008167;28;20365;-71
2021/12/15 10:10:44;;;;;;;19.03;13.77;;;8.60;99.90;;;;;;5007634;28;20240;-72
2021/12/15 10:18:49;;;;;;;20.10;14.67;;;8.70;99.90;;;;;;5007893;28;20240;-72
2021/12/15 10:21:23;;;;;;;19.37;13.50;;;8.70;99.90;;;;;;5007984;28;20607;-72
2021/12/15 10:23:51;;;;;;;20.03;14.80;;;8.70;99.90;;;;;;5007433;28;20202;-72
2021/12/15 10:26:21;;;;;;;20.00;14.50;;;8.70;99.90;;;;;;5010777;28;20606;-72
2021/12/15 10:28:52;;;;;;;18.60;13.87;;;8.80;99.90;;;;;;5010754;28;20264;-72
2021/12/15 10:31:21;;;;;;;19.70;13.40;;;8.90;99.90;;;;;;5011696;28;20209;-72
2021/12/15 10:33:52;;;;;;;17.80;13.73;;;8.90;99.90;;;;;;5011645;28;20671;-72
2021/12/15 10:36:22;;;;;;;16.63;13.33;;;8.90;99.90;;;;;;5011745;28;20240;-72
2021/12/15 10:38:52;;;;;;;16.27;13.03;;;8.90;99.90;;;;;;5013286;28;20292;-72
2021/12/15 10:41:23;;;;;;;15.93;12.80;;;8.90;99.90;;;;;;5007683;28;20233;-71
2021/12/15 10:43:53;;;;;;;18.40;12.87;;;8.90;99.90;;;;;;5022495;28;20300;-71
2021/12/15 10:46:22;;;;;;;17.40;12.60;;;8.90;99.90;;;;;;5026810;28;20294;-71
2021/12/15 10:48:52;;;;;;;16.90;12.90;;;8.90;99.90;;;;;;5027807;28;20215;-71
2021/12/15 10:51:40;;;;;;;16.43;13.27;;;9.00;99.90;;;;;;5015124;28;20275;-70
2021/12/15 10:54:11;;;;;;;17.77;12.00;;;9.00;99.90;;;;;;5023372;28;20760;-72
2021/12/15 10:56:42;;;;;;;14.03;11.83;;;9.00;99.90;;;;;;5025394;28;20624;-71
2021/12/15 10:59:12;;;;;;;13.60;11.33;;;9.00;99.90;;;;;;5027566;28;20197;-72
2021/12/15 11:01:55;;;;;;;13.50;10.97;;;9.00;99.90;;;;;;5027701;28;20366;-72
2021/12/15 11:04:32;;;;;;;14.53;11.17;;;9.00;99.90;;;;;;5026830;28;20195;-72
2021/12/15 11:07:25;;;;;;;16.00;12.70;;;9.00;99.90;;;;;;5027223;28;20254;-72
2021/12/15 11:09:56;;;;;;;13.03;11.50;;;9.00;99.90;;;;;;5026064;28;20232;-72
2021/12/15 11:12:29;;;;;;;13.30;11.03;;;9.00;99.90;;;;;;5026322;28;20222;-72
2021/12/15 11:15:00;;;;;;;14.07;11.33;;;9.10;99.90;;;;;;5026574;28;20935;-72
2021/12/15 11:17:30;;;;;;;14.87;11.33;;;9.10;99.90;;;;;;5026658;28;20247;-72
2021/12/15 11:20:01;;;;;;;13.73;11.53;;;9.10;99.90;;;;;;5026021;28;20193;-72
2021/12/15 11:22:44;;;;;;;13.30;11.40;;;9.10;99.90;;;;;;5025931;28;20205;-72
2021/12/15 11:25:18;;;;;;;18.10;14.43;;;9.10;99.90;;;;;;5026146;28;20197;-72
2021/12/15 11:27:50;;;;;;;14.63;12.53;;;9.20;99.90;;;;;;5025300;28;20195;-72
2021/12/15 11:30:25;;;;;;;13.77;10.93;;;9.10;99.90;;;;;;5026633;28;20307;-72
2021/12/15 11:32:54;;;;;;;11.97;10.77;;;9.20;99.90;;;;;;5022826;28;20276;-72
2021/12/15 11:35:24;;;;;;;13.50;10.70;;;9.20;99.90;;;;;;5025912;28;20304;-72
2021/12/15 11:37:58;;;;;;;12.83;10.50;;;9.20;99.90;;;;;;5027386;28;20252;-72
2021/12/15 11:40:41;;;;;;;13.43;10.77;;;9.20;99.90;;;;;;5015303;28;20205;-73
2021/12/15 11:43:11;;;;;;;11.57;10.17;;;9.30;99.90;;;;;;5005823;28;20193;-73
2021/12/15 11:45:43;;;;;;;13.53;10.23;;;9.30;99.90;;;;;;5006556;28;20794;-74
2021/12/15 11:48:20;;;;;;;11.07;9.83;;;9.30;99.90;;;;;;5006010;28;20292;-71
2021/12/15 11:50:49;;;;;;;11.40;10.20;;;9.40;99.90;;;;;;5005749;28;20343;-72
2021/12/15 11:53:30;;;;;;;11.53;9.63;;;9.40;99.90;;;;;;5005861;28;20639;-71
2021/12/15 11:56:22;;;;;;;10.30;9.17;;;9.40;99.90;;;;;;5006508;28;20328;-71
2021/12/15 11:58:55;;;;;;;11.77;9.20;;;9.40;99.90;;;;;;5006210;28;20747;-72
2021/12/15 12:01:49;;;;;;;11.27;8.93;;;9.40;99.90;;;;;;5005993;28;20678;-72
2021/12/15 12:04:30;;;;;;;10.27;9.13;;;9.40;99.90;;;;;;5005963;28;20671;-72
2021/12/15 12:07:11;;;;;;;9.33;8.33;;;9.40;99.90;;;;;;5006202;28;20693;-72
2021/12/15 12:09:39;;;;;;;9.90;8.73;;;9.50;99.90;;;;;;5006013;28;20265;-72
2021/12/15 12:12:07;;;;;;;10.37;9.17;;;9.50;99.90;;;;;;5006194;28;20224;-72
2021/12/15 12:14:42;;;;;;;10.43;9.27;;;9.50;99.90;;;;;;5006382;28;20263;-72
2021/12/15 12:17:13;;;;;;;10.70;9.30;;;9.50;99.90;;;;;;5005746;28;20201;-72
2021/12/15 12:19:52;;;;;;;10.50;9.50;;;9.50;99.90;;;;;;5005752;28;20556;-72
2021/12/15 12:22:21;;;;;;;10.40;8.97;;;9.60;99.90;;;;;;5005748;28;20276;-72
2021/12/15 12:24:52;;;;;;;10.40;9.30;;;9.60;99.90;;;;;;5005913;28;20218;-72
2021/12/15 12:27:20;;;;;;;9.37;8.43;;;9.60;99.90;;;;;;5005722;28;20583;-71
2021/12/15 12:29:49;;;;;;;11.03;8.20;;;9.60;99.90;;;;;;5005667;28;20237;-72
2021/12/15 12:32:16;;;;;;;9.27;8.27;;;9.60;99.90;;;;;;5005993;28;20300;-71
2021/12/15 12:34:43;;;;;;;10.63;9.00;;;9.60;99.90;;;;;;5005907;28;20233;-72
2021/12/15 12:37:15;;;;;;;9.60;8.43;;;9.60;99.90;;;;;;5005420;28;20214;-71
2021/12/15 12:39:53;;;;;;;9.60;8.60;;;9.60;99.90;;;;;;5005384;28;20665;-71
2021/12/15 12:42:32;;;;;;;10.03;8.40;;;9.60;99.90;;;;;;5005699;28;20199;-72
2021/12/15 12:45:36;;;;;;;9.57;8.63;;;9.60;99.90;;;;;;5005360;28;20229;-72
2021/12/15 12:48:38;;;;;;;10.37;9.37;;;9.60;99.90;;;;;;4962928;28;20203;-72
2021/12/15 12:59:42;;;;;;;9.63;8.67;;;9.60;99.90;;;;;;5005467;28;20574;-73
2021/12/15 13:02:47;;;;;;;10.43;9.27;;;9.70;99.90;;;;;;5005060;28;20189;-72
2021/12/15 13:05:31;;;;;;;10.93;8.80;;;9.70;99.90;;;;;;4963163;28;20198;-73
2021/12/15 13:08:00;;;;;;;9.87;8.87;;;9.70;99.90;;;;;;5001577;28;20241;-72
2021/12/15 13:10:53;;;;;;;10.53;9.23;;;9.60;99.90;;;;;;5004866;28;20237;-72
2021/12/15 13:13:23;;;;;;;10.17;8.93;;;9.70;99.90;;;;;;5002587;28;20267;-72
2021/12/15 13:15:57;;;;;;;12.47;9.07;;;9.70;99.90;;;;;;5004916;28;20572;-72
2021/12/15 13:18:26;;;;;;;11.33;9.63;;;9.70;99.90;;;;;;5004940;28;20197;-72
2021/12/15 13:20:56;;;;;;;10.03;8.53;;;9.80;99.90;;;;;;5005129;28;20214;-72
2021/12/15 13:23:46;;;;;;;9.93;8.93;;;9.80;99.90;;;;;;5005087;28;20216;-72
2021/12/15 13:29:22;;;;;;;10.90;9.53;;;9.70;99.90;;;;;;4983519;28;20392;-72
2021/12/15 13:31:55;;;;;;;11.97;9.83;;;9.70;99.90;;;;;;5004629;28;20339;-73
2021/12/15 13:34:44;;;;;;;9.90;8.90;;;9.70;99.90;;;;;;5005130;28;20202;-73
2021/12/15 13:37:11;;;;;;;14.77;11.77;;;9.70;99.90;;;;;;5004808;28;20272;-72
2021/12/15 13:39:47;;;;;;;14.67;11.90;;;9.70;99.90;;;;;;5007651;28;20648;-73
2021/12/15 13:42:43;;;;;;;14.40;11.47;;;9.70;99.90;;;;;;5005322;28;20197;-77
2021/12/15 13:45:27;;;;;;;12.43;10.70;;;9.70;99.90;;;;;;5014771;28;20717;-76
2021/12/15 13:47:55;;;;;;;13.43;10.77;;;9.70;99.90;;;;;;5024920;28;20205;-73
2021/12/15 13:50:27;;;;;;;11.17;9.87;;;9.70;99.90;;;;;;5004741;28;20237;-73
2021/12/15 13:52:56;;;;;;;11.40;10.07;;;9.70;99.90;;;;;;5004371;28;20229;-73
2021/12/15 13:55:25;;;;;;;13.13;10.70;;;9.70;99.90;;;;;;5003988;28;20237;-73
2021/12/15 13:58:01;;;;;;;13.47;9.73;;;9.70;99.90;;;;;;5004592;28;20304;-73
2021/12/15 14:00:34;;;;;;;12.47;10.00;;;9.60;99.90;;;;;;5007005;28;20610;-73
2021/12/15 14:03:17;;;;;;;13.60;10.77;;;9.60;99.90;;;;;;5008196;28;20648;-73